sensor_id;sensor_type;location;lat;lon;timestamp;temperature;humidity
30049;DHT22;16879;50.852;15.602;2023-09-08T00:01:33;12.40;1.00
30049;DHT22;16879;50.852;15.602;2023-09-08T00:04:00;12.50;1.00
30049;DHT22;16879;50.852;15.602;2023-09-08T00:06:25;12.80;1.00
30049;DHT22;16879;50.852;15.602;2023-09-08T00:08:51;13.20;1.00
30049;DHT22;16879;50.852;15.602;2023-09-08T00:11:17;12.40;1.00
30049;DHT22;16879;50.852;15.602;2023-09-08T00:13:43;12.60;1.00
30049;DHT22;16879;50.852;15.602;2023-09-08T00:16:09;12.50;1.00
30049;DHT22;16879;50.852;15.602;2023-09-08T00:21:02;13.10;1.00
30049;DHT22;16879;50.852;15.602;2023-09-08T00:23:27;12.40;1.00
30049;DHT22;16879;50.852;15.602;2023-09-08T00:25:54;12.60;1.00
30049;DHT22;16879;50.852;15.602;2023-09-08T00:35:39;12.50;1.00
30049;DHT22;16879;50.852;15.602;2023-09-08T00:38:05;12.30;1.00
30049;DHT22;16879;50.852;15.602;2023-09-08T00:40:33;12.30;1.00
30049;DHT22;16879;50.852;15.602;2023-09-08T00:42:58;12.20;1.00
30049;DHT22;16879;50.852;15.602;2023-09-08T00:45:27;12.50;1.00
30049;DHT22;16879;50.852;15.602;2023-09-08T00:50:20;12.40;99.90
30049;DHT22;16879;50.852;15.602;2023-09-08T00:52:47;12.20;99.90
30049;DHT22;16879;50.852;15.602;2023-09-08T00:55:13;12.60;40.80
30049;DHT22;16879;50.852;15.602;2023-09-08T01:00:07;12.20;30.10
30049;DHT22;16879;50.852;15.602;2023-09-08T01:02:33;12.50;99.90
30049;DHT22;16879;50.852;15.602;2023-09-08T01:04:59;12.50;1.00
30049;DHT22;16879;50.852;15.602;2023-09-08T01:07:26;12.80;1.00
30049;DHT22;16879;50.852;15.602;2023-09-08T01:12:23;12.60;1.00
30049;DHT22;16879;50.852;15.602;2023-09-08T01:14:50;12.30;1.00
30049;DHT22;16879;50.852;15.602;2023-09-08T01:17:15;12.40;1.00
30049;DHT22;16879;50.852;15.602;2023-09-08T01:19:43;12.30;1.00
30049;DHT22;16879;50.852;15.602;2023-09-08T01:27:35;12.40;1.00
30049;DHT22;16879;50.852;15.602;2023-09-08T01:30:05;12.50;1.00
30049;DHT22;16879;50.852;15.602;2023-09-08T01:32:32;12.30;1.00
30049;DHT22;16879;50.852;15.602;2023-09-08T01:34:58;12.30;1.00
30049;DHT22;16879;50.852;15.602;2023-09-08T01:37:25;12.10;1.00
30049;DHT22;16879;50.852;15.602;2023-09-08T01:39:52;12.40;1.00
30049;DHT22;16879;50.852;15.602;2023-09-08T01:42:18;12.30;1.00
30049;DHT22;16879;50.852;15.602;2023-09-08T01:44:43;11.90;1.00
30049;DHT22;16879;50.852;15.602;2023-09-08T01:47:09;12.00;1.00
30049;DHT22;16879;50.852;15.602;2023-09-08T01:49:35;11.90;1.00
30049;DHT22;16879;50.852;15.602;2023-09-08T01:52:01;11.40;1.00
30049;DHT22;16879;50.852;15.602;2023-09-08T01:54:27;11.20;1.00
30049;DHT22;16879;50.852;15.602;2023-09-08T01:56:52;11.40;1.00
30049;DHT22;16879;50.852;15.602;2023-09-08T01:59:18;11.20;1.00
30049;DHT22;16879;50.852;15.602;2023-09-08T02:04:10;11.30;1.00
30049;DHT22;16879;50.852;15.602;2023-09-08T02:11:29;11.60;1.00
30049;DHT22;16879;50.852;15.602;2023-09-08T02:13:54;11.20;1.00
30049;DHT22;16879;50.852;15.602;2023-09-08T02:16:20;10.80;1.00
30049;DHT22;16879;50.852;15.602;2023-09-08T02:23:38;11.20;34.50
30049;DHT22;16879;50.852;15.602;2023-09-08T02:30:56;11.50;20.20
30049;DHT22;16879;50.852;15.602;2023-09-08T02:40:40;11.60;1.00
30049;DHT22;16879;50.852;15.602;2023-09-08T02:47:58;11.80;1.00
30049;DHT22;16879;50.852;15.602;2023-09-08T02:55:16;10.50;1.00
30049;DHT22;16879;50.852;15.602;2023-09-08T03:00:08;10.60;1.00
30049;DHT22;16879;50.852;15.602;2023-09-08T03:02:34;10.40;1.00
30049;DHT22;16879;50.852;15.602;2023-09-08T03:05:01;10.00;1.00
30049;DHT22;16879;50.852;15.602;2023-09-08T03:07:27;10.40;1.00
30049;DHT22;16879;50.852;15.602;2023-09-08T03:09:53;10.30;1.00
30049;DHT22;16879;50.852;15.602;2023-09-08T03:14:45;11.00;1.00
30049;DHT22;16879;50.852;15.602;2023-09-08T03:17:12;9.70;1.00
30049;DHT22;16879;50.852;15.602;2023-09-08T03:19:38;10.40;1.00
30049;DHT22;16879;50.852;15.602;2023-09-08T03:24:30;9.70;1.00
30049;DHT22;16879;50.852;15.602;2023-09-08T03:29:23;10.50;1.00
30049;DHT22;16879;50.852;15.602;2023-09-08T03:31:49;10.20;70.20
30049;DHT22;16879;50.852;15.602;2023-09-08T03:34:15;10.10;1.00
30049;DHT22;16879;50.852;15.602;2023-09-08T03:36:41;10.10;1.00
30049;DHT22;16879;50.852;15.602;2023-09-08T03:39:06;10.50;1.00
30049;DHT22;16879;50.852;15.602;2023-09-08T03:41:35;10.20;1.00
30049;DHT22;16879;50.852;15.602;2023-09-08T03:44:00;9.70;1.00
30049;DHT22;16879;50.852;15.602;2023-09-08T03:46:26;10.00;1.00
30049;DHT22;16879;50.852;15.602;2023-09-08T03:51:24;10.70;1.00
30049;DHT22;16879;50.852;15.602;2023-09-08T03:53:50;10.50;1.00
30049;DHT22;16879;50.852;15.602;2023-09-08T03:56:16;10.70;1.00
30049;DHT22;16879;50.852;15.602;2023-09-08T04:01:08;10.70;1.00
30049;DHT22;16879;50.852;15.602;2023-09-08T04:06:00;10.60;1.00
30049;DHT22;16879;50.852;15.602;2023-09-08T04:08:26;10.50;1.00
30049;DHT22;16879;50.852;15.602;2023-09-08T04:13:18;9.90;1.00
30049;DHT22;16879;50.852;15.602;2023-09-08T04:20:36;10.20;1.00
30049;DHT22;16879;50.852;15.602;2023-09-08T04:27:54;9.50;1.00
30049;DHT22;16879;50.852;15.602;2023-09-08T04:32:46;9.70;1.00
30049;DHT22;16879;50.852;15.602;2023-09-08T04:35:12;9.50;1.00
30049;DHT22;16879;50.852;15.602;2023-09-08T04:42:33;9.60;1.00
30049;DHT22;16879;50.852;15.602;2023-09-08T04:44:58;9.20;1.00
30049;DHT22;16879;50.852;15.602;2023-09-08T04:47:24;9.60;1.00
30049;DHT22;16879;50.852;15.602;2023-09-08T04:54:43;9.60;1.00
30049;DHT22;16879;50.852;15.602;2023-09-08T04:57:11;9.50;1.00
30049;DHT22;16879;50.852;15.602;2023-09-08T04:59:37;9.70;1.00
30049;DHT22;16879;50.852;15.602;2023-09-08T05:02:04;9.40;1.00
30049;DHT22;16879;50.852;15.602;2023-09-08T05:09:22;10.30;1.00
30049;DHT22;16879;50.852;15.602;2023-09-08T05:16:40;10.00;1.00
30049;DHT22;16879;50.852;15.602;2023-09-08T05:24:08;10.20;1.00
30049;DHT22;16879;50.852;15.602;2023-09-08T05:26:37;10.20;1.00
30049;DHT22;16879;50.852;15.602;2023-09-08T05:33:55;10.50;1.00
30049;DHT22;16879;50.852;15.602;2023-09-08T05:36:21;10.80;1.00
30049;DHT22;16879;50.852;15.602;2023-09-08T05:38:47;10.40;1.00
30049;DHT22;16879;50.852;15.602;2023-09-08T05:41:12;11.60;1.00
30049;DHT22;16879;50.852;15.602;2023-09-08T05:43:39;10.90;1.00
30049;DHT22;16879;50.852;15.602;2023-09-08T05:46:04;11.60;1.00
30049;DHT22;16879;50.852;15.602;2023-09-08T05:48:31;11.30;1.00
30049;DHT22;16879;50.852;15.602;2023-09-08T05:50:57;11.40;1.00
30049;DHT22;16879;50.852;15.602;2023-09-08T05:53:23;10.80;1.00
30049;DHT22;16879;50.852;15.602;2023-09-08T05:55:48;11.80;1.00
30049;DHT22;16879;50.852;15.602;2023-09-08T06:00:41;11.80;1.00
30049;DHT22;16879;50.852;15.602;2023-09-08T06:03:06;11.80;1.00
30049;DHT22;16879;50.852;15.602;2023-09-08T06:07:58;12.30;1.00
30049;DHT22;16879;50.852;15.602;2023-09-08T06:15:17;12.60;1.00
30049;DHT22;16879;50.852;15.602;2023-09-08T06:17:43;13.20;1.00
30049;DHT22;16879;50.852;15.602;2023-09-08T06:20:10;13.30;1.00
30049;DHT22;16879;50.852;15.602;2023-09-08T06:27:28;13.70;1.00
30049;DHT22;16879;50.852;15.602;2023-09-08T06:32:22;14.00;1.00
30049;DHT22;16879;50.852;15.602;2023-09-08T06:37:14;14.40;1.00
30049;DHT22;16879;50.852;15.602;2023-09-08T06:42:06;14.60;1.00
30049;DHT22;16879;50.852;15.602;2023-09-08T06:49:25;15.40;1.00
30049;DHT22;16879;50.852;15.602;2023-09-08T06:51:50;15.40;1.00
30049;DHT22;16879;50.852;15.602;2023-09-08T06:56:43;15.70;1.00
30049;DHT22;16879;50.852;15.602;2023-09-08T06:59:09;15.90;1.00
30049;DHT22;16879;50.852;15.602;2023-09-08T07:01:37;16.20;1.00
30049;DHT22;16879;50.852;15.602;2023-09-08T07:04:03;16.60;1.00
30049;DHT22;16879;50.852;15.602;2023-09-08T07:06:29;16.30;1.00
30049;DHT22;16879;50.852;15.602;2023-09-08T07:08:54;16.30;1.00
30049;DHT22;16879;50.852;15.602;2023-09-08T07:11:20;16.60;1.00
30049;DHT22;16879;50.852;15.602;2023-09-08T07:21:04;17.50;1.00
30049;DHT22;16879;50.852;15.602;2023-09-08T07:23:31;17.50;1.00
30049;DHT22;16879;50.852;15.602;2023-09-08T07:25:57;17.80;1.00
30049;DHT22;16879;50.852;15.602;2023-09-08T07:28:23;18.10;1.00
30049;DHT22;16879;50.852;15.602;2023-09-08T07:30:48;18.50;1.00
30049;DHT22;16879;50.852;15.602;2023-09-08T07:33:14;18.50;1.00
30049;DHT22;16879;50.852;15.602;2023-09-08T07:38:07;19.00;1.00
30049;DHT22;16879;50.852;15.602;2023-09-08T07:40:33;19.20;1.00
30049;DHT22;16879;50.852;15.602;2023-09-08T07:42:59;19.30;1.00
30049;DHT22;16879;50.852;15.602;2023-09-08T07:45:25;19.00;1.00
30049;DHT22;16879;50.852;15.602;2023-09-08T07:47:51;19.30;1.00
30049;DHT22;16879;50.852;15.602;2023-09-08T07:50:25;19.20;1.00
30049;DHT22;16879;50.852;15.602;2023-09-08T07:52:54;19.60;1.00
30049;DHT22;16879;50.852;15.602;2023-09-08T07:55:21;19.80;1.00
30049;DHT22;16879;50.852;15.602;2023-09-08T07:57:53;20.00;1.00
30049;DHT22;16879;50.852;15.602;2023-09-08T08:00:19;19.90;1.00
30049;DHT22;16879;50.852;15.602;2023-09-08T08:02:50;20.10;1.00
30049;DHT22;16879;50.852;15.602;2023-09-08T08:07:45;20.40;1.00
30049;DHT22;16879;50.852;15.602;2023-09-08T08:10:11;20.80;1.00
30049;DHT22;16879;50.852;15.602;2023-09-08T08:12:38;21.00;1.00
30049;DHT22;16879;50.852;15.602;2023-09-08T08:15:05;20.90;1.00
30049;DHT22;16879;50.852;15.602;2023-09-08T08:19:58;21.60;1.00
30049;DHT22;16879;50.852;15.602;2023-09-08T08:22:33;21.60;1.00
30049;DHT22;16879;50.852;15.602;2023-09-08T08:24:59;21.80;1.00
30049;DHT22;16879;50.852;15.602;2023-09-08T08:27:25;21.80;1.00
30049;DHT22;16879;50.852;15.602;2023-09-08T08:29:51;22.00;1.00
30049;DHT22;16879;50.852;15.602;2023-09-08T08:32:17;22.30;1.00
30049;DHT22;16879;50.852;15.602;2023-09-08T08:37:11;22.70;1.00
30049;DHT22;16879;50.852;15.602;2023-09-08T08:39:37;22.80;1.00
30049;DHT22;16879;50.852;15.602;2023-09-08T08:42:12;23.30;1.00
30049;DHT22;16879;50.852;15.602;2023-09-08T08:44:38;23.40;1.00
30049;DHT22;16879;50.852;15.602;2023-09-08T08:47:06;23.20;1.00
30049;DHT22;16879;50.852;15.602;2023-09-08T08:49:33;23.40;1.00
30049;DHT22;16879;50.852;15.602;2023-09-08T08:52:00;23.80;1.00
30049;DHT22;16879;50.852;15.602;2023-09-08T08:54:37;23.90;1.00
30049;DHT22;16879;50.852;15.602;2023-09-08T08:57:04;23.90;1.00
30049;DHT22;16879;50.852;15.602;2023-09-08T08:59:30;24.20;1.00
30049;DHT22;16879;50.852;15.602;2023-09-08T09:01:58;24.30;1.00
30049;DHT22;16879;50.852;15.602;2023-09-08T09:04:26;24.50;1.00
30049;DHT22;16879;50.852;15.602;2023-09-08T09:06:55;24.60;1.00
30049;DHT22;16879;50.852;15.602;2023-09-08T09:09:21;24.80;1.00
30049;DHT22;16879;50.852;15.602;2023-09-08T09:11:49;24.90;1.00
30049;DHT22;16879;50.852;15.602;2023-09-08T09:14:15;25.00;1.00
30049;DHT22;16879;50.852;15.602;2023-09-08T09:16:43;25.20;1.00
30049;DHT22;16879;50.852;15.602;2023-09-08T09:19:10;25.50;1.00
30049;DHT22;16879;50.852;15.602;2023-09-08T09:21:48;25.50;1.00
30049;DHT22;16879;50.852;15.602;2023-09-08T09:24:15;25.70;1.00
30049;DHT22;16879;50.852;15.602;2023-09-08T09:26:42;25.60;1.00
30049;DHT22;16879;50.852;15.602;2023-09-08T09:29:14;25.70;1.00
30049;DHT22;16879;50.852;15.602;2023-09-08T09:31:58;26.00;1.00
30049;DHT22;16879;50.852;15.602;2023-09-08T09:34:27;25.90;99.90
30049;DHT22;16879;50.852;15.602;2023-09-08T09:36:53;26.50;99.90
30049;DHT22;16879;50.852;15.602;2023-09-08T09:39:24;26.20;99.90
30049;DHT22;16879;50.852;15.602;2023-09-08T09:41:55;26.70;99.90
30049;DHT22;16879;50.852;15.602;2023-09-08T09:44:21;26.70;99.90
30049;DHT22;16879;50.852;15.602;2023-09-08T09:46:48;26.80;99.90
30049;DHT22;16879;50.852;15.602;2023-09-08T09:49:15;27.00;99.90
30049;DHT22;16879;50.852;15.602;2023-09-08T09:51:47;27.10;99.90
30049;DHT22;16879;50.852;15.602;2023-09-08T09:54:14;27.30;99.90
30049;DHT22;16879;50.852;15.602;2023-09-08T09:56:40;27.40;99.90
30049;DHT22;16879;50.852;15.602;2023-09-08T09:59:11;27.50;99.90
30049;DHT22;16879;50.852;15.602;2023-09-08T10:01:39;27.70;99.90
30049;DHT22;16879;50.852;15.602;2023-09-08T10:04:07;27.80;99.90
30049;DHT22;16879;50.852;15.602;2023-09-08T10:06:35;27.80;99.90
30049;DHT22;16879;50.852;15.602;2023-09-08T10:09:02;28.00;99.90
30049;DHT22;16879;50.852;15.602;2023-09-08T10:11:49;28.00;99.90
30049;DHT22;16879;50.852;15.602;2023-09-08T10:14:17;27.90;99.90
30049;DHT22;16879;50.852;15.602;2023-09-08T10:16:49;28.60;99.90
30049;DHT22;16879;50.852;15.602;2023-09-08T10:19:18;28.40;99.90
30049;DHT22;16879;50.852;15.602;2023-09-08T10:21:48;28.30;99.90
30049;DHT22;16879;50.852;15.602;2023-09-08T10:24:23;28.10;99.90
30049;DHT22;16879;50.852;15.602;2023-09-08T10:27:08;28.20;99.90
30049;DHT22;16879;50.852;15.602;2023-09-08T10:29:38;28.50;99.90
30049;DHT22;16879;50.852;15.602;2023-09-08T10:32:06;28.70;99.90
30049;DHT22;16879;50.852;15.602;2023-09-08T10:34:33;28.50;99.90
30049;DHT22;16879;50.852;15.602;2023-09-08T10:37:00;28.60;99.90
30049;DHT22;16879;50.852;15.602;2023-09-08T10:39:29;28.70;99.90
30049;DHT22;16879;50.852;15.602;2023-09-08T10:47:54;29.20;99.90
30049;DHT22;16879;50.852;15.602;2023-09-08T10:50:40;29.50;99.90
30049;DHT22;16879;50.852;15.602;2023-09-08T10:55:53;29.40;99.90
30049;DHT22;16879;50.852;15.602;2023-09-08T10:58:33;29.30;99.90
30049;DHT22;16879;50.852;15.602;2023-09-08T11:01:02;29.50;99.90
30049;DHT22;16879;50.852;15.602;2023-09-08T11:06:08;29.30;99.90
30049;DHT22;16879;50.852;15.602;2023-09-08T11:08:37;29.30;99.90
30049;DHT22;16879;50.852;15.602;2023-09-08T11:11:03;29.50;99.90
30049;DHT22;16879;50.852;15.602;2023-09-08T11:13:29;29.70;99.90
30049;DHT22;16879;50.852;15.602;2023-09-08T11:15:58;29.60;99.90
30049;DHT22;16879;50.852;15.602;2023-09-08T11:18:30;29.60;99.90
30049;DHT22;16879;50.852;15.602;2023-09-08T11:20:57;29.80;99.90
30049;DHT22;16879;50.852;15.602;2023-09-08T11:23:23;30.20;99.90
30049;DHT22;16879;50.852;15.602;2023-09-08T11:25:51;30.10;99.90
30049;DHT22;16879;50.852;15.602;2023-09-08T11:28:17;30.00;99.90
30049;DHT22;16879;50.852;15.602;2023-09-08T11:30:46;30.30;99.90
30049;DHT22;16879;50.852;15.602;2023-09-08T11:33:20;30.30;99.90
30049;DHT22;16879;50.852;15.602;2023-09-08T11:35:55;30.40;99.90
30049;DHT22;16879;50.852;15.602;2023-09-08T11:38:28;30.60;99.90
30049;DHT22;16879;50.852;15.602;2023-09-08T11:40:57;30.70;99.90
30049;DHT22;16879;50.852;15.602;2023-09-08T11:43:23;31.20;99.90
30049;DHT22;16879;50.852;15.602;2023-09-08T11:45:49;31.10;99.90
30049;DHT22;16879;50.852;15.602;2023-09-08T11:48:15;31.10;99.90
30049;DHT22;16879;50.852;15.602;2023-09-08T11:50:44;31.10;99.90
30049;DHT22;16879;50.852;15.602;2023-09-08T11:55:37;30.60;99.90
30049;DHT22;16879;50.852;15.602;2023-09-08T11:58:03;30.50;99.90
30049;DHT22;16879;50.852;15.602;2023-09-08T12:00:29;30.40;99.90
30049;DHT22;16879;50.852;15.602;2023-09-08T12:02:59;30.60;99.90
30049;DHT22;16879;50.852;15.602;2023-09-08T12:08:03;30.80;99.90
30049;DHT22;16879;50.852;15.602;2023-09-08T12:10:37;31.00;99.90
30049;DHT22;16879;50.852;15.602;2023-09-08T12:13:03;31.10;99.90
30049;DHT22;16879;50.852;15.602;2023-09-08T12:15:41;31.30;99.90
30049;DHT22;16879;50.852;15.602;2023-09-08T12:18:12;31.40;99.90
30049;DHT22;16879;50.852;15.602;2023-09-08T12:20:39;31.40;99.90
30049;DHT22;16879;50.852;15.602;2023-09-08T12:23:16;31.40;99.90
30049;DHT22;16879;50.852;15.602;2023-09-08T12:25:46;31.50;99.90
30049;DHT22;16879;50.852;15.602;2023-09-08T12:28:12;31.60;99.90
30049;DHT22;16879;50.852;15.602;2023-09-08T12:30:38;31.80;99.90
30049;DHT22;16879;50.852;15.602;2023-09-08T12:33:04;31.90;99.90
30049;DHT22;16879;50.852;15.602;2023-09-08T12:35:31;31.90;99.90
30049;DHT22;16879;50.852;15.602;2023-09-08T12:37:58;31.90;99.90
30049;DHT22;16879;50.852;15.602;2023-09-08T12:40:33;31.80;99.90
30049;DHT22;16879;50.852;15.602;2023-09-08T12:42:59;31.90;99.90
30049;DHT22;16879;50.852;15.602;2023-09-08T12:45:25;32.00;99.90
30049;DHT22;16879;50.852;15.602;2023-09-08T12:47:51;32.00;99.90
30049;DHT22;16879;50.852;15.602;2023-09-08T12:50:20;31.90;99.90
30049;DHT22;16879;50.852;15.602;2023-09-08T12:52:46;31.90;99.90
30049;DHT22;16879;50.852;15.602;2023-09-08T12:55:12;31.90;99.90
30049;DHT22;16879;50.852;15.602;2023-09-08T13:00:05;32.20;99.90
30049;DHT22;16879;50.852;15.602;2023-09-08T13:02:31;32.00;99.90
30049;DHT22;16879;50.852;15.602;2023-09-08T13:04:57;32.20;99.90
30049;DHT22;16879;50.852;15.602;2023-09-08T13:07:23;32.30;99.90
30049;DHT22;16879;50.852;15.602;2023-09-08T13:09:50;32.40;99.90
30049;DHT22;16879;50.852;15.602;2023-09-08T13:14:44;32.40;99.90
30049;DHT22;16879;50.852;15.602;2023-09-08T13:17:11;32.40;99.90
30049;DHT22;16879;50.852;15.602;2023-09-08T13:19:38;32.40;99.90
30049;DHT22;16879;50.852;15.602;2023-09-08T13:22:07;32.40;99.90
30049;DHT22;16879;50.852;15.602;2023-09-08T13:24:33;32.20;99.90
30049;DHT22;16879;50.852;15.602;2023-09-08T13:27:02;32.40;99.90
30049;DHT22;16879;50.852;15.602;2023-09-08T13:31:55;32.40;99.90
30049;DHT22;16879;50.852;15.602;2023-09-08T13:34:24;32.40;99.90
30049;DHT22;16879;50.852;15.602;2023-09-08T13:36:50;32.40;99.90
30049;DHT22;16879;50.852;15.602;2023-09-08T13:39:17;32.50;99.90
30049;DHT22;16879;50.852;15.602;2023-09-08T13:41:53;32.50;99.90
30049;DHT22;16879;50.852;15.602;2023-09-08T13:44:21;32.90;99.90
30049;DHT22;16879;50.852;15.602;2023-09-08T13:46:48;32.80;99.90
30049;DHT22;16879;50.852;15.602;2023-09-08T13:49:15;32.70;99.90
30049;DHT22;16879;50.852;15.602;2023-09-08T13:51:42;32.70;99.90
30049;DHT22;16879;50.852;15.602;2023-09-08T13:54:09;32.70;99.90
30049;DHT22;16879;50.852;15.602;2023-09-08T13:56:37;32.50;99.90
30049;DHT22;16879;50.852;15.602;2023-09-08T13:59:03;32.40;99.90
30049;DHT22;16879;50.852;15.602;2023-09-08T14:01:29;32.40;99.90
30049;DHT22;16879;50.852;15.602;2023-09-08T14:03:56;32.40;99.90
30049;DHT22;16879;50.852;15.602;2023-09-08T14:06:23;32.50;99.90
30049;DHT22;16879;50.852;15.602;2023-09-08T14:08:50;32.50;99.90
30049;DHT22;16879;50.852;15.602;2023-09-08T14:11:16;32.40;99.90
30049;DHT22;16879;50.852;15.602;2023-09-08T14:16:09;32.30;99.90
30049;DHT22;16879;50.852;15.602;2023-09-08T14:18:37;32.00;99.90
30049;DHT22;16879;50.852;15.602;2023-09-08T14:21:03;31.70;99.90
30049;DHT22;16879;50.852;15.602;2023-09-08T14:23:30;31.00;99.90
30049;DHT22;16879;50.852;15.602;2023-09-08T14:25:57;30.50;99.90
30049;DHT22;16879;50.852;15.602;2023-09-08T14:28:23;30.40;99.90
30049;DHT22;16879;50.852;15.602;2023-09-08T14:30:50;30.00;99.90
30049;DHT22;16879;50.852;15.602;2023-09-08T14:38:12;29.90;99.90
30049;DHT22;16879;50.852;15.602;2023-09-08T14:40:44;29.90;99.90
30049;DHT22;16879;50.852;15.602;2023-09-08T14:45:36;29.80;99.90
30049;DHT22;16879;50.852;15.602;2023-09-08T14:48:03;29.80;99.90
30049;DHT22;16879;50.852;15.602;2023-09-08T14:50:29;29.60;99.90
30049;DHT22;16879;50.852;15.602;2023-09-08T14:52:55;29.50;99.90
30049;DHT22;16879;50.852;15.602;2023-09-08T14:55:21;29.20;99.90
30049;DHT22;16879;50.852;15.602;2023-09-08T14:57:47;29.30;99.90
30049;DHT22;16879;50.852;15.602;2023-09-08T15:00:13;29.10;99.90
30049;DHT22;16879;50.852;15.602;2023-09-08T15:02:40;29.30;99.90
30049;DHT22;16879;50.852;15.602;2023-09-08T15:12:25;28.80;99.90
30049;DHT22;16879;50.852;15.602;2023-09-08T15:14:54;28.70;99.90
30049;DHT22;16879;50.852;15.602;2023-09-08T15:19:47;28.60;99.90
30049;DHT22;16879;50.852;15.602;2023-09-08T15:24:41;28.40;99.90
30049;DHT22;16879;50.852;15.602;2023-09-08T15:27:07;28.30;99.90
30049;DHT22;16879;50.852;15.602;2023-09-08T15:29:33;28.00;99.90
30049;DHT22;16879;50.852;15.602;2023-09-08T15:32:00;28.10;99.90
30049;DHT22;16879;50.852;15.602;2023-09-08T15:34:26;27.90;99.90
30049;DHT22;16879;50.852;15.602;2023-09-08T15:36:51;27.70;99.90
30049;DHT22;16879;50.852;15.602;2023-09-08T15:39:18;27.90;99.90
30049;DHT22;16879;50.852;15.602;2023-09-08T15:41:44;27.70;99.90
30049;DHT22;16879;50.852;15.602;2023-09-08T15:46:36;27.70;99.90
30049;DHT22;16879;50.852;15.602;2023-09-08T15:51:29;27.30;99.90
30049;DHT22;16879;50.852;15.602;2023-09-08T15:56:21;26.60;99.90
30049;DHT22;16879;50.852;15.602;2023-09-08T16:01:13;26.20;99.90
30049;DHT22;16879;50.852;15.602;2023-09-08T16:03:39;26.00;99.90
30049;DHT22;16879;50.852;15.602;2023-09-08T16:06:05;25.90;99.90
30049;DHT22;16879;50.852;15.602;2023-09-08T16:08:33;25.80;99.90
30049;DHT22;16879;50.852;15.602;2023-09-08T16:11:00;25.80;99.90
30049;DHT22;16879;50.852;15.602;2023-09-08T16:13:33;25.40;99.90
30049;DHT22;16879;50.852;15.602;2023-09-08T16:18:27;24.20;99.90
30049;DHT22;16879;50.852;15.602;2023-09-08T16:23:20;24.40;99.90
30049;DHT22;16879;50.852;15.602;2023-09-08T16:28:13;23.70;99.90
30049;DHT22;16879;50.852;15.602;2023-09-08T16:33:06;23.30;99.90
30049;DHT22;16879;50.852;15.602;2023-09-08T16:35:35;23.20;99.90
30049;DHT22;16879;50.852;15.602;2023-09-08T16:40:29;22.70;99.90
30049;DHT22;16879;50.852;15.602;2023-09-08T16:42:55;22.60;99.90
30049;DHT22;16879;50.852;15.602;2023-09-08T16:45:21;22.50;99.90
30049;DHT22;16879;50.852;15.602;2023-09-08T16:47:47;22.30;99.90
30049;DHT22;16879;50.852;15.602;2023-09-08T16:50:13;22.20;99.90
30049;DHT22;16879;50.852;15.602;2023-09-08T16:52:40;22.00;99.90
30049;DHT22;16879;50.852;15.602;2023-09-08T16:55:07;21.80;99.90
30049;DHT22;16879;50.852;15.602;2023-09-08T16:57:40;21.50;99.90
30049;DHT22;16879;50.852;15.602;2023-09-08T17:02:35;21.50;99.90
30049;DHT22;16879;50.852;15.602;2023-09-08T17:05:01;21.30;99.90
30049;DHT22;16879;50.852;15.602;2023-09-08T17:07:27;21.20;99.90
30049;DHT22;16879;50.852;15.602;2023-09-08T17:09:54;21.30;99.90
30049;DHT22;16879;50.852;15.602;2023-09-08T17:14:46;20.90;99.90
30049;DHT22;16879;50.852;15.602;2023-09-08T17:19:38;20.60;99.90
30049;DHT22;16879;50.852;15.602;2023-09-08T17:22:05;20.80;99.90
30049;DHT22;16879;50.852;15.602;2023-09-08T17:24:32;20.50;99.90
30049;DHT22;16879;50.852;15.602;2023-09-08T17:26:58;20.40;99.90
30049;DHT22;16879;50.852;15.602;2023-09-08T17:29:24;20.10;99.90
30049;DHT22;16879;50.852;15.602;2023-09-08T17:31:50;20.50;99.90
30049;DHT22;16879;50.852;15.602;2023-09-08T17:34:20;20.20;99.90
30049;DHT22;16879;50.852;15.602;2023-09-08T17:36:53;20.10;99.90
30049;DHT22;16879;50.852;15.602;2023-09-08T17:39:22;20.40;99.90
30049;DHT22;16879;50.852;15.602;2023-09-08T17:41:48;19.90;99.90
30049;DHT22;16879;50.852;15.602;2023-09-08T17:49:08;19.60;99.90
30049;DHT22;16879;50.852;15.602;2023-09-08T17:51:35;19.90;99.90
30049;DHT22;16879;50.852;15.602;2023-09-08T17:54:02;19.50;99.90
30049;DHT22;16879;50.852;15.602;2023-09-08T17:56:28;19.60;99.90
30049;DHT22;16879;50.852;15.602;2023-09-08T17:58:55;19.60;99.90
30049;DHT22;16879;50.852;15.602;2023-09-08T18:03:47;19.40;99.90
30049;DHT22;16879;50.852;15.602;2023-09-08T18:06:14;19.30;99.90
30049;DHT22;16879;50.852;15.602;2023-09-08T18:08:40;19.20;99.90
30049;DHT22;16879;50.852;15.602;2023-09-08T18:13:33;19.20;99.90
30049;DHT22;16879;50.852;15.602;2023-09-08T18:16:00;19.00;99.90
30049;DHT22;16879;50.852;15.602;2023-09-08T18:18:26;19.00;99.90
30049;DHT22;16879;50.852;15.602;2023-09-08T18:25:46;18.50;99.90
30049;DHT22;16879;50.852;15.602;2023-09-08T18:28:16;18.60;99.90
30049;DHT22;16879;50.852;15.602;2023-09-08T18:30:43;18.90;99.90
30049;DHT22;16879;50.852;15.602;2023-09-08T18:33:09;18.50;99.90
30049;DHT22;16879;50.852;15.602;2023-09-08T18:35:36;18.30;99.90
30049;DHT22;16879;50.852;15.602;2023-09-08T18:38:06;18.20;99.90
30049;DHT22;16879;50.852;15.602;2023-09-08T18:43:01;18.20;99.90
30049;DHT22;16879;50.852;15.602;2023-09-08T18:45:28;18.10;99.90
30049;DHT22;16879;50.852;15.602;2023-09-08T18:47:54;18.10;99.90
30049;DHT22;16879;50.852;15.602;2023-09-08T18:50:20;17.90;99.90
30049;DHT22;16879;50.852;15.602;2023-09-08T18:55:14;17.80;99.90
30049;DHT22;16879;50.852;15.602;2023-09-08T18:57:41;17.70;99.90
30049;DHT22;16879;50.852;15.602;2023-09-08T19:00:08;17.70;99.90
30049;DHT22;16879;50.852;15.602;2023-09-08T19:02:36;17.60;99.90
30049;DHT22;16879;50.852;15.602;2023-09-08T19:05:03;17.50;99.90
30049;DHT22;16879;50.852;15.602;2023-09-08T19:07:32;17.60;99.90
30049;DHT22;16879;50.852;15.602;2023-09-08T19:09:58;17.40;99.90
30049;DHT22;16879;50.852;15.602;2023-09-08T19:12:25;17.40;99.90
30049;DHT22;16879;50.852;15.602;2023-09-08T19:14:51;17.40;99.90
30049;DHT22;16879;50.852;15.602;2023-09-08T19:17:17;17.40;99.90
30049;DHT22;16879;50.852;15.602;2023-09-08T19:19:44;17.40;99.90
30049;DHT22;16879;50.852;15.602;2023-09-08T19:22:10;16.70;99.90
30049;DHT22;16879;50.852;15.602;2023-09-08T19:24:36;16.70;99.90
30049;DHT22;16879;50.852;15.602;2023-09-08T19:27:03;17.00;99.90
30049;DHT22;16879;50.852;15.602;2023-09-08T19:29:30;16.90;99.90
30049;DHT22;16879;50.852;15.602;2023-09-08T19:36:49;16.80;1.00
30049;DHT22;16879;50.852;15.602;2023-09-08T19:39:18;16.70;99.90
30049;DHT22;16879;50.852;15.602;2023-09-08T19:41:47;16.50;1.00
30049;DHT22;16879;50.852;15.602;2023-09-08T19:44:14;16.70;1.00
30049;DHT22;16879;50.852;15.602;2023-09-08T19:46:40;16.40;1.00